sensor_id;sensor_type;location;lat;lon;timestamp;P1;durP1;ratioP1;P2;durP2;ratioP2
39188;SDS011;24915;50.858;4.376;2023-08-31T00:02:12;3.40;;;2.30;;
39188;SDS011;24915;50.858;4.376;2023-08-31T00:04:38;3.33;;;2.58;;
39188;SDS011;24915;50.858;4.376;2023-08-31T00:07:04;3.97;;;3.03;;
39188;SDS011;24915;50.858;4.376;2023-08-31T00:09:32;9.75;;;3.45;;
39188;SDS011;24915;50.858;4.376;2023-08-31T00:11:58;5.70;;;2.90;;
39188;SDS011;24915;50.858;4.376;2023-08-31T00:14:26;5.18;;;3.03;;
39188;SDS011;24915;50.858;4.376;2023-08-31T00:16:52;4.95;;;3.08;;
39188;SDS011;24915;50.858;4.376;2023-08-31T00:19:18;4.82;;;2.95;;
39188;SDS011;24915;50.858;4.376;2023-08-31T00:21:44;5.97;;;3.13;;
39188;SDS011;24915;50.858;4.376;2023-08-31T00:24:10;4.18;;;2.90;;
39188;SDS011;24915;50.858;4.376;2023-08-31T00:26:36;7.95;;;3.47;;
39188;SDS011;24915;50.858;4.376;2023-08-31T00:29:06;4.60;;;3.28;;
39188;SDS011;24915;50.858;4.376;2023-08-31T00:31:32;4.68;;;3.55;;
39188;SDS011;24915;50.858;4.376;2023-08-31T00:33:59;7.47;;;3.80;;
39188;SDS011;24915;50.858;4.376;2023-08-31T00:36:32;5.78;;;3.22;;
39188;SDS011;24915;50.858;4.376;2023-08-31T00:38:58;4.97;;;3.70;;
39188;SDS011;24915;50.858;4.376;2023-08-31T00:41:30;6.50;;;3.63;;
39188;SDS011;24915;50.858;4.376;2023-08-31T00:43:56;6.30;;;3.85;;
39188;SDS011;24915;50.858;4.376;2023-08-31T00:46:22;7.13;;;4.05;;
39188;SDS011;24915;50.858;4.376;2023-08-31T00:48:47;7.72;;;3.90;;
39188;SDS011;24915;50.858;4.376;2023-08-31T00:51:13;5.10;;;3.88;;
39188;SDS011;24915;50.858;4.376;2023-08-31T00:53:39;8.23;;;4.20;;
39188;SDS011;24915;50.858;4.376;2023-08-31T00:56:06;7.93;;;4.40;;
39188;SDS011;24915;50.858;4.376;2023-08-31T00:58:33;7.47;;;4.18;;
39188;SDS011;24915;50.858;4.376;2023-08-31T01:06:27;9.73;;;4.32;;
39188;SDS011;24915;50.858;4.376;2023-08-31T01:12:11;5.55;;;4.20;;
39188;SDS011;24915;50.858;4.376;2023-08-31T01:14:56;4.97;;;4.25;;
39188;SDS011;24915;50.858;4.376;2023-08-31T01:17:44;5.90;;;4.25;;
39188;SDS011;24915;50.858;4.376;2023-08-31T01:20:17;6.30;;;4.45;;
39188;SDS011;24915;50.858;4.376;2023-08-31T01:23:02;9.30;;;4.50;;
39188;SDS011;24915;50.858;4.376;2023-08-31T01:25:33;8.07;;;4.35;;
39188;SDS011;24915;50.858;4.376;2023-08-31T01:28:00;4.88;;;4.22;;
39188;SDS011;24915;50.858;4.376;2023-08-31T01:30:29;8.05;;;4.40;;
39188;SDS011;24915;50.858;4.376;2023-08-31T01:32:56;6.25;;;3.90;;
39188;SDS011;24915;50.858;4.376;2023-08-31T01:35:21;7.95;;;4.47;;
39188;SDS011;24915;50.858;4.376;2023-08-31T01:37:54;10.38;;;4.70;;
39188;SDS011;24915;50.858;4.376;2023-08-31T01:42:48;8.93;;;4.80;;
39188;SDS011;24915;50.858;4.376;2023-08-31T01:45:19;10.90;;;4.85;;
39188;SDS011;24915;50.858;4.376;2023-08-31T01:47:49;5.70;;;4.68;;
39188;SDS011;24915;50.858;4.376;2023-08-31T01:50:14;7.28;;;4.70;;
39188;SDS011;24915;50.858;4.376;2023-08-31T01:52:40;7.10;;;5.15;;
39188;SDS011;24915;50.858;4.376;2023-08-31T01:55:06;8.23;;;4.63;;
39188;SDS011;24915;50.858;4.376;2023-08-31T01:57:32;7.70;;;4.32;;
39188;SDS011;24915;50.858;4.376;2023-08-31T01:59:59;7.07;;;4.30;;
39188;SDS011;24915;50.858;4.376;2023-08-31T02:02:25;7.68;;;4.05;;
39188;SDS011;24915;50.858;4.376;2023-08-31T02:04:50;5.50;;;4.38;;
39188;SDS011;24915;50.858;4.376;2023-08-31T02:07:17;6.10;;;4.10;;
39188;SDS011;24915;50.858;4.376;2023-08-31T02:09:42;5.78;;;3.90;;
39188;SDS011;24915;50.858;4.376;2023-08-31T02:12:08;4.93;;;3.78;;
39188;SDS011;24915;50.858;4.376;2023-08-31T02:14:37;10.50;;;4.32;;
39188;SDS011;24915;50.858;4.376;2023-08-31T02:17:03;5.28;;;3.50;;
39188;SDS011;24915;50.858;4.376;2023-08-31T02:19:29;5.40;;;3.72;;
39188;SDS011;24915;50.858;4.376;2023-08-31T02:21:55;7.40;;;4.03;;
39188;SDS011;24915;50.858;4.376;2023-08-31T02:24:21;4.90;;;3.40;;
39188;SDS011;24915;50.858;4.376;2023-08-31T02:26:47;5.47;;;3.65;;
39188;SDS011;24915;50.858;4.376;2023-08-31T02:29:13;10.48;;;4.32;;
39188;SDS011;24915;50.858;4.376;2023-08-31T02:31:39;13.43;;;4.30;;
39188;SDS011;24915;50.858;4.376;2023-08-31T02:34:06;5.70;;;3.65;;
39188;SDS011;24915;50.858;4.376;2023-08-31T02:36:32;6.60;;;4.30;;
39188;SDS011;24915;50.858;4.376;2023-08-31T02:38:58;7.18;;;3.78;;
39188;SDS011;24915;50.858;4.376;2023-08-31T02:41:23;6.38;;;3.67;;
39188;SDS011;24915;50.858;4.376;2023-08-31T02:43:52;9.30;;;3.47;;
39188;SDS011;24915;50.858;4.376;2023-08-31T02:46:18;9.25;;;3.70;;
39188;SDS011;24915;50.858;4.376;2023-08-31T02:48:43;5.68;;;3.58;;
39188;SDS011;24915;50.858;4.376;2023-08-31T02:51:09;8.90;;;3.80;;
39188;SDS011;24915;50.858;4.376;2023-08-31T02:53:35;7.10;;;3.70;;
39188;SDS011;24915;50.858;4.376;2023-08-31T02:56:01;5.15;;;3.83;;
39188;SDS011;24915;50.858;4.376;2023-08-31T02:58:27;6.65;;;3.47;;
39188;SDS011;24915;50.858;4.376;2023-08-31T03:00:52;6.75;;;3.80;;
39188;SDS011;24915;50.858;4.376;2023-08-31T03:03:18;6.55;;;3.72;;
39188;SDS011;24915;50.858;4.376;2023-08-31T03:05:44;4.82;;;3.70;;
39188;SDS011;24915;50.858;4.376;2023-08-31T03:08:10;6.63;;;3.88;;
39188;SDS011;24915;50.858;4.376;2023-08-31T03:10:36;7.28;;;3.75;;
39188;SDS011;24915;50.858;4.376;2023-08-31T03:13:03;6.05;;;3.85;;
39188;SDS011;24915;50.858;4.376;2023-08-31T03:15:29;7.78;;;3.80;;
39188;SDS011;24915;50.858;4.376;2023-08-31T03:17:54;7.20;;;3.25;;
39188;SDS011;24915;50.858;4.376;2023-08-31T03:20:20;6.85;;;3.53;;
39188;SDS011;24915;50.858;4.376;2023-08-31T03:22:46;7.75;;;3.40;;
39188;SDS011;24915;50.858;4.376;2023-08-31T03:25:11;8.48;;;3.70;;
39188;SDS011;24915;50.858;4.376;2023-08-31T03:27:37;6.53;;;3.58;;
39188;SDS011;24915;50.858;4.376;2023-08-31T03:30:02;5.38;;;3.25;;
39188;SDS011;24915;50.858;4.376;2023-08-31T03:32:29;5.20;;;3.67;;
39188;SDS011;24915;50.858;4.376;2023-08-31T03:34:54;9.98;;;3.85;;
39188;SDS011;24915;50.858;4.376;2023-08-31T03:37:20;5.75;;;3.50;;
39188;SDS011;24915;50.858;4.376;2023-08-31T03:39:49;7.90;;;3.42;;
39188;SDS011;24915;50.858;4.376;2023-08-31T03:42:15;7.13;;;3.70;;
39188;SDS011;24915;50.858;4.376;2023-08-31T03:44:41;6.45;;;4.03;;
39188;SDS011;24915;50.858;4.376;2023-08-31T03:47:07;7.05;;;3.65;;
39188;SDS011;24915;50.858;4.376;2023-08-31T03:49:32;8.32;;;4.22;;
39188;SDS011;24915;50.858;4.376;2023-08-31T03:52:00;7.93;;;4.43;;
39188;SDS011;24915;50.858;4.376;2023-08-31T03:54:25;8.90;;;3.60;;
39188;SDS011;24915;50.858;4.376;2023-08-31T03:56:51;6.63;;;3.97;;
39188;SDS011;24915;50.858;4.376;2023-08-31T03:59:17;7.30;;;3.80;;
39188;SDS011;24915;50.858;4.376;2023-08-31T04:01:43;7.10;;;3.33;;
39188;SDS011;24915;50.858;4.376;2023-08-31T04:04:09;6.38;;;3.95;;
39188;SDS011;24915;50.858;4.376;2023-08-31T04:06:35;5.90;;;3.25;;
39188;SDS011;24915;50.858;4.376;2023-08-31T04:09:00;6.93;;;3.47;;
39188;SDS011;24915;50.858;4.376;2023-08-31T04:11:26;5.38;;;3.15;;
39188;SDS011;24915;50.858;4.376;2023-08-31T04:13:52;4.53;;;3.25;;
39188;SDS011;24915;50.858;4.376;2023-08-31T04:16:18;6.05;;;3.60;;
39188;SDS011;24915;50.858;4.376;2023-08-31T04:18:44;5.35;;;3.22;;
39188;SDS011;24915;50.858;4.376;2023-08-31T04:21:12;4.93;;;3.38;;
39188;SDS011;24915;50.858;4.376;2023-08-31T04:23:38;5.35;;;3.17;;
39188;SDS011;24915;50.858;4.376;2023-08-31T04:26:10;8.70;;;3.70;;
39188;SDS011;24915;50.858;4.376;2023-08-31T04:28:40;4.90;;;3.38;;
39188;SDS011;24915;50.858;4.376;2023-08-31T04:31:09;5.93;;;3.67;;
39188;SDS011;24915;50.858;4.376;2023-08-31T04:33:35;6.32;;;3.53;;
39188;SDS011;24915;50.858;4.376;2023-08-31T04:36:02;9.52;;;3.53;;
39188;SDS011;24915;50.858;4.376;2023-08-31T04:38:29;8.40;;;3.58;;
39188;SDS011;24915;50.858;4.376;2023-08-31T04:40:59;9.10;;;3.65;;
39188;SDS011;24915;50.858;4.376;2023-08-31T04:43:25;7.28;;;3.83;;
39188;SDS011;24915;50.858;4.376;2023-08-31T04:45:51;5.28;;;3.80;;
39188;SDS011;24915;50.858;4.376;2023-08-31T04:48:17;5.05;;;3.58;;
39188;SDS011;24915;50.858;4.376;2023-08-31T04:50:43;7.10;;;3.67;;
39188;SDS011;24915;50.858;4.376;2023-08-31T04:53:09;5.93;;;3.30;;
39188;SDS011;24915;50.858;4.376;2023-08-31T04:55:34;6.00;;;3.38;;
39188;SDS011;24915;50.858;4.376;2023-08-31T04:58:00;7.00;;;3.55;;
39188;SDS011;24915;50.858;4.376;2023-08-31T05:00:26;8.85;;;3.50;;
39188;SDS011;24915;50.858;4.376;2023-08-31T05:02:51;11.07;;;4.05;;
39188;SDS011;24915;50.858;4.376;2023-08-31T05:05:17;5.47;;;3.85;;
39188;SDS011;24915;50.858;4.376;2023-08-31T05:07:46;10.98;;;3.50;;
39188;SDS011;24915;50.858;4.376;2023-08-31T05:10:11;6.38;;;3.60;;
39188;SDS011;24915;50.858;4.376;2023-08-31T05:12:37;5.82;;;3.75;;
39188;SDS011;24915;50.858;4.376;2023-08-31T05:15:03;6.60;;;4.15;;
39188;SDS011;24915;50.858;4.376;2023-08-31T05:17:29;7.55;;;3.88;;
39188;SDS011;24915;50.858;4.376;2023-08-31T05:19:56;9.10;;;3.83;;
39188;SDS011;24915;50.858;4.376;2023-08-31T05:22:22;10.77;;;4.05;;
39188;SDS011;24915;50.858;4.376;2023-08-31T05:24:48;8.88;;;4.55;;
39188;SDS011;24915;50.858;4.376;2023-08-31T05:27:14;7.00;;;4.28;;
39188;SDS011;24915;50.858;4.376;2023-08-31T05:29:39;7.55;;;3.90;;
39188;SDS011;24915;50.858;4.376;2023-08-31T05:32:05;7.68;;;4.05;;
39188;SDS011;24915;50.858;4.376;2023-08-31T05:34:31;8.45;;;4.10;;
39188;SDS011;24915;50.858;4.376;2023-08-31T05:36:59;8.10;;;4.35;;
39188;SDS011;24915;50.858;4.376;2023-08-31T05:39:25;9.40;;;4.22;;
39188;SDS011;24915;50.858;4.376;2023-08-31T05:41:51;10.90;;;3.75;;
39188;SDS011;24915;50.858;4.376;2023-08-31T05:44:17;11.10;;;4.50;;
39188;SDS011;24915;50.858;4.376;2023-08-31T05:46:42;11.82;;;3.90;;
39188;SDS011;24915;50.858;4.376;2023-08-31T05:49:08;12.00;;;4.47;;
39188;SDS011;24915;50.858;4.376;2023-08-31T05:51:34;10.23;;;3.80;;
39188;SDS011;24915;50.858;4.376;2023-08-31T05:54:00;15.48;;;4.07;;
39188;SDS011;24915;50.858;4.376;2023-08-31T05:56:26;9.02;;;3.92;;
39188;SDS011;24915;50.858;4.376;2023-08-31T05:58:51;9.95;;;4.32;;
39188;SDS011;24915;50.858;4.376;2023-08-31T06:01:20;12.02;;;4.20;;
39188;SDS011;24915;50.858;4.376;2023-08-31T06:03:47;16.00;;;4.32;;
39188;SDS011;24915;50.858;4.376;2023-08-31T06:06:13;15.63;;;4.80;;
39188;SDS011;24915;50.858;4.376;2023-08-31T06:08:39;14.43;;;4.30;;
39188;SDS011;24915;50.858;4.376;2023-08-31T06:11:05;13.80;;;4.00;;
39188;SDS011;24915;50.858;4.376;2023-08-31T06:13:31;12.15;;;3.47;;
39188;SDS011;24915;50.858;4.376;2023-08-31T06:15:56;17.92;;;3.92;;
39188;SDS011;24915;50.858;4.376;2023-08-31T06:18:24;17.30;;;3.85;;
39188;SDS011;24915;50.858;4.376;2023-08-31T06:20:50;15.07;;;4.25;;
39188;SDS011;24915;50.858;4.376;2023-08-31T06:23:16;22.73;;;5.05;;
39188;SDS011;24915;50.858;4.376;2023-08-31T06:25:42;18.88;;;5.00;;
39188;SDS011;24915;50.858;4.376;2023-08-31T06:28:10;16.25;;;4.50;;
39188;SDS011;24915;50.858;4.376;2023-08-31T06:30:37;21.02;;;4.88;;
39188;SDS011;24915;50.858;4.376;2023-08-31T06:33:03;14.18;;;4.10;;
39188;SDS011;24915;50.858;4.376;2023-08-31T06:35:29;14.50;;;4.13;;
39188;SDS011;24915;50.858;4.376;2023-08-31T06:37:56;15.30;;;4.00;;
39188;SDS011;24915;50.858;4.376;2023-08-31T06:40:22;14.35;;;4.50;;
39188;SDS011;24915;50.858;4.376;2023-08-31T06:42:49;17.60;;;4.20;;
39188;SDS011;24915;50.858;4.376;2023-08-31T06:45:15;15.75;;;4.25;;
39188;SDS011;24915;50.858;4.376;2023-08-31T06:47:40;14.00;;;4.22;;
39188;SDS011;24915;50.858;4.376;2023-08-31T06:50:06;13.45;;;4.15;;
39188;SDS011;24915;50.858;4.376;2023-08-31T06:52:32;14.40;;;4.38;;
39188;SDS011;24915;50.858;4.376;2023-08-31T06:54:58;17.10;;;4.65;;
39188;SDS011;24915;50.858;4.376;2023-08-31T06:57:25;15.35;;;4.55;;
39188;SDS011;24915;50.858;4.376;2023-08-31T06:59:52;11.18;;;4.25;;
39188;SDS011;24915;50.858;4.376;2023-08-31T07:02:18;9.57;;;4.30;;
39188;SDS011;24915;50.858;4.376;2023-08-31T07:04:44;14.23;;;4.88;;
39188;SDS011;24915;50.858;4.376;2023-08-31T07:07:10;18.30;;;4.72;;
39188;SDS011;24915;50.858;4.376;2023-08-31T07:09:39;18.60;;;4.43;;
39188;SDS011;24915;50.858;4.376;2023-08-31T07:12:07;19.35;;;4.70;;
39188;SDS011;24915;50.858;4.376;2023-08-31T07:14:33;20.77;;;4.75;;
39188;SDS011;24915;50.858;4.376;2023-08-31T07:16:59;18.20;;;4.30;;
39188;SDS011;24915;50.858;4.376;2023-08-31T07:19:24;18.55;;;5.10;;
39188;SDS011;24915;50.858;4.376;2023-08-31T07:21:51;17.90;;;4.35;;
39188;SDS011;24915;50.858;4.376;2023-08-31T07:24:19;12.07;;;4.20;;
39188;SDS011;24915;50.858;4.376;2023-08-31T07:26:45;10.48;;;4.32;;
39188;SDS011;24915;50.858;4.376;2023-08-31T07:29:11;17.27;;;4.78;;
39188;SDS011;24915;50.858;4.376;2023-08-31T07:31:36;10.68;;;4.20;;
39188;SDS011;24915;50.858;4.376;2023-08-31T07:34:02;15.82;;;4.35;;
39188;SDS011;24915;50.858;4.376;2023-08-31T07:36:28;16.83;;;4.80;;
39188;SDS011;24915;50.858;4.376;2023-08-31T07:38:54;16.02;;;5.03;;
39188;SDS011;24915;50.858;4.376;2023-08-31T07:41:20;15.05;;;4.68;;
39188;SDS011;24915;50.858;4.376;2023-08-31T07:43:45;10.80;;;4.70;;
39188;SDS011;24915;50.858;4.376;2023-08-31T07:46:11;12.35;;;4.63;;
39188;SDS011;24915;50.858;4.376;2023-08-31T07:48:36;22.67;;;5.22;;
39188;SDS011;24915;50.858;4.376;2023-08-31T07:51:03;18.77;;;5.05;;
39188;SDS011;24915;50.858;4.376;2023-08-31T07:53:28;12.80;;;4.40;;
39188;SDS011;24915;50.858;4.376;2023-08-31T07:55:55;10.75;;;4.25;;
39188;SDS011;24915;50.858;4.376;2023-08-31T07:58:24;16.98;;;4.50;;
39188;SDS011;24915;50.858;4.376;2023-08-31T08:00:57;13.18;;;4.22;;
39188;SDS011;24915;50.858;4.376;2023-08-31T08:03:23;17.55;;;4.93;;
39188;SDS011;24915;50.858;4.376;2023-08-31T08:05:49;12.50;;;4.55;;
39188;SDS011;24915;50.858;4.376;2023-08-31T08:08:15;14.27;;;4.10;;
39188;SDS011;24915;50.858;4.376;2023-08-31T08:10:40;12.57;;;4.32;;
39188;SDS011;24915;50.858;4.376;2023-08-31T08:13:08;18.23;;;4.72;;
39188;SDS011;24915;50.858;4.376;2023-08-31T08:15:34;15.25;;;4.30;;
39188;SDS011;24915;50.858;4.376;2023-08-31T08:18:00;15.68;;;4.68;;
39188;SDS011;24915;50.858;4.376;2023-08-31T08:20:26;18.17;;;4.80;;
39188;SDS011;24915;50.858;4.376;2023-08-31T08:22:53;13.63;;;4.25;;
39188;SDS011;24915;50.858;4.376;2023-08-31T08:25:19;22.85;;;4.50;;
39188;SDS011;24915;50.858;4.376;2023-08-31T08:27:45;24.48;;;12.77;;
39188;SDS011;24915;50.858;4.376;2023-08-31T08:30:11;14.57;;;4.65;;
39188;SDS011;24915;50.858;4.376;2023-08-31T08:32:37;18.50;;;4.63;;
39188;SDS011;24915;50.858;4.376;2023-08-31T08:35:03;10.85;;;4.13;;
39188;SDS011;24915;50.858;4.376;2023-08-31T08:37:29;17.33;;;4.03;;
39188;SDS011;24915;50.858;4.376;2023-08-31T08:39:57;12.95;;;4.30;;
39188;SDS011;24915;50.858;4.376;2023-08-31T08:42:24;16.48;;;4.47;;
39188;SDS011;24915;50.858;4.376;2023-08-31T08:44:50;12.15;;;3.90;;
39188;SDS011;24915;50.858;4.376;2023-08-31T08:47:17;15.18;;;4.00;;
39188;SDS011;24915;50.858;4.376;2023-08-31T08:49:43;14.68;;;4.50;;
39188;SDS011;24915;50.858;4.376;2023-08-31T08:52:09;9.68;;;4.45;;
39188;SDS011;24915;50.858;4.376;2023-08-31T08:54:36;14.15;;;4.57;;
39188;SDS011;24915;50.858;4.376;2023-08-31T08:57:03;12.10;;;4.10;;
39188;SDS011;24915;50.858;4.376;2023-08-31T08:59:32;14.40;;;4.55;;
39188;SDS011;24915;50.858;4.376;2023-08-31T09:01:58;14.95;;;4.38;;
39188;SDS011;24915;50.858;4.376;2023-08-31T09:04:24;19.65;;;4.05;;
39188;SDS011;24915;50.858;4.376;2023-08-31T09:06:52;15.27;;;4.45;;
39188;SDS011;24915;50.858;4.376;2023-08-31T09:09:18;11.07;;;3.90;;
39188;SDS011;24915;50.858;4.376;2023-08-31T09:11:45;17.17;;;4.60;;
39188;SDS011;24915;50.858;4.376;2023-08-31T09:14:17;10.48;;;3.92;;
39188;SDS011;24915;50.858;4.376;2023-08-31T09:16:47;14.47;;;4.73;;
39188;SDS011;24915;50.858;4.376;2023-08-31T09:19:32;12.10;;;5.25;;
39188;SDS011;24915;50.858;4.376;2023-08-31T09:21:58;10.35;;;3.85;;
39188;SDS011;24915;50.858;4.376;2023-08-31T09:24:24;13.95;;;4.55;;
39188;SDS011;24915;50.858;4.376;2023-08-31T09:26:53;15.57;;;4.40;;
39188;SDS011;24915;50.858;4.376;2023-08-31T09:29:21;9.73;;;4.40;;
39188;SDS011;24915;50.858;4.376;2023-08-31T09:31:47;12.82;;;3.78;;
39188;SDS011;24915;50.858;4.376;2023-08-31T09:34:16;10.27;;;4.00;;
39188;SDS011;24915;50.858;4.376;2023-08-31T09:36:43;12.98;;;3.95;;
39188;SDS011;24915;50.858;4.376;2023-08-31T09:39:09;11.55;;;3.92;;
39188;SDS011;24915;50.858;4.376;2023-08-31T09:41:52;11.50;;;3.92;;
39188;SDS011;24915;50.858;4.376;2023-08-31T09:44:19;9.02;;;3.75;;
39188;SDS011;24915;50.858;4.376;2023-08-31T09:46:46;12.43;;;4.13;;
39188;SDS011;24915;50.858;4.376;2023-08-31T09:49:15;6.38;;;3.53;;
39188;SDS011;24915;50.858;4.376;2023-08-31T09:51:46;11.60;;;5.00;;
39188;SDS011;24915;50.858;4.376;2023-08-31T09:54:14;16.77;;;4.43;;
39188;SDS011;24915;50.858;4.376;2023-08-31T09:56:42;17.95;;;4.43;;
39188;SDS011;24915;50.858;4.376;2023-08-31T09:59:10;9.35;;;4.07;;
39188;SDS011;24915;50.858;4.376;2023-08-31T10:01:37;13.35;;;3.72;;
39188;SDS011;24915;50.858;4.376;2023-08-31T10:04:03;8.32;;;3.67;;
39188;SDS011;24915;50.858;4.376;2023-08-31T10:06:31;8.38;;;4.15;;
39188;SDS011;24915;50.858;4.376;2023-08-31T10:08:57;11.70;;;3.67;;
39188;SDS011;24915;50.858;4.376;2023-08-31T10:11:27;9.00;;;3.58;;
39188;SDS011;24915;50.858;4.376;2023-08-31T10:13:53;9.85;;;3.63;;
39188;SDS011;24915;50.858;4.376;2023-08-31T10:16:20;10.13;;;3.42;;
39188;SDS011;24915;50.858;4.376;2023-08-31T10:18:47;16.25;;;4.25;;
39188;SDS011;24915;50.858;4.376;2023-08-31T10:21:17;11.05;;;3.70;;
39188;SDS011;24915;50.858;4.376;2023-08-31T10:23:47;7.05;;;3.88;;
39188;SDS011;24915;50.858;4.376;2023-08-31T10:26:23;7.57;;;3.50;;
39188;SDS011;24915;50.858;4.376;2023-08-31T10:28:50;6.95;;;2.78;;
39188;SDS011;24915;50.858;4.376;2023-08-31T10:31:16;11.25;;;3.15;;
39188;SDS011;24915;50.858;4.376;2023-08-31T10:36:19;12.00;;;3.78;;
39188;SDS011;24915;50.858;4.376;2023-08-31T10:41:36;8.55;;;3.55;;
39188;SDS011;24915;50.858;4.376;2023-08-31T10:44:02;9.05;;;3.15;;
39188;SDS011;24915;50.858;4.376;2023-08-31T10:46:42;9.15;;;3.40;;
39188;SDS011;24915;50.858;4.376;2023-08-31T10:51:34;8.38;;;3.42;;
39188;SDS011;24915;50.858;4.376;2023-08-31T10:54:11;8.80;;;3.53;;
39188;SDS011;24915;50.858;4.376;2023-08-31T10:56:51;6.95;;;3.10;;
39188;SDS011;24915;50.858;4.376;2023-08-31T10:59:25;10.00;;;3.08;;
39188;SDS011;24915;50.858;4.376;2023-08-31T11:01:52;6.85;;;3.17;;
39188;SDS011;24915;50.858;4.376;2023-08-31T11:04:22;10.82;;;3.50;;
39188;SDS011;24915;50.858;4.376;2023-08-31T11:09:40;6.53;;;2.90;;
39188;SDS011;24915;50.858;4.376;2023-08-31T11:12:06;7.68;;;2.45;;
39188;SDS011;24915;50.858;4.376;2023-08-31T11:14:32;9.15;;;3.03;;
39188;SDS011;24915;50.858;4.376;2023-08-31T11:16:58;10.02;;;3.35;;
39188;SDS011;24915;50.858;4.376;2023-08-31T11:19:25;11.02;;;2.95;;
39188;SDS011;24915;50.858;4.376;2023-08-31T11:21:52;7.70;;;3.00;;
39188;SDS011;24915;50.858;4.376;2023-08-31T11:24:19;6.32;;;2.72;;
39188;SDS011;24915;50.858;4.376;2023-08-31T11:26:50;9.95;;;2.75;;
39188;SDS011;24915;50.858;4.376;2023-08-31T11:29:15;9.98;;;2.92;;
39188;SDS011;24915;50.858;4.376;2023-08-31T11:31:41;5.93;;;2.55;;
39188;SDS011;24915;50.858;4.376;2023-08-31T11:34:11;6.50;;;2.40;;
39188;SDS011;24915;50.858;4.376;2023-08-31T11:36:38;8.05;;;2.60;;
39188;SDS011;24915;50.858;4.376;2023-08-31T11:39:06;7.22;;;2.72;;
39188;SDS011;24915;50.858;4.376;2023-08-31T11:41:35;7.10;;;2.28;;
39188;SDS011;24915;50.858;4.376;2023-08-31T11:44:05;9.68;;;2.88;;
39188;SDS011;24915;50.858;4.376;2023-08-31T11:46:32;16.05;;;8.60;;
39188;SDS011;24915;50.858;4.376;2023-08-31T11:48:59;10.80;;;2.80;;
39188;SDS011;24915;50.858;4.376;2023-08-31T11:51:25;9.20;;;2.28;;
39188;SDS011;24915;50.858;4.376;2023-08-31T11:53:54;9.95;;;2.65;;
39188;SDS011;24915;50.858;4.376;2023-08-31T11:56:23;7.03;;;2.10;;
39188;SDS011;24915;50.858;4.376;2023-08-31T11:58:52;7.43;;;2.10;;
39188;SDS011;24915;50.858;4.376;2023-08-31T12:01:19;7.63;;;2.42;;
39188;SDS011;24915;50.858;4.376;2023-08-31T12:03:46;8.02;;;2.47;;
39188;SDS011;24915;50.858;4.376;2023-08-31T12:06:18;8.90;;;2.65;;
39188;SDS011;24915;50.858;4.376;2023-08-31T12:08:45;8.15;;;2.33;;
39188;SDS011;24915;50.858;4.376;2023-08-31T12:11:14;9.13;;;2.40;;
39188;SDS011;24915;50.858;4.376;2023-08-31T12:13:40;9.70;;;2.45;;
39188;SDS011;24915;50.858;4.376;2023-08-31T12:16:11;6.20;;;2.30;;
39188;SDS011;24915;50.858;4.376;2023-08-31T12:18:37;11.93;;;2.47;;
39188;SDS011;24915;50.858;4.376;2023-08-31T12:21:03;8.32;;;2.35;;
39188;SDS011;24915;50.858;4.376;2023-08-31T12:23:29;19.08;;;3.10;;
39188;SDS011;24915;50.858;4.376;2023-08-31T12:25:55;10.27;;;2.70;;
39188;SDS011;24915;50.858;4.376;2023-08-31T12:28:21;13.73;;;2.95;;
39188;SDS011;24915;50.858;4.376;2023-08-31T12:30:48;10.18;;;2.83;;
39188;SDS011;24915;50.858;4.376;2023-08-31T12:33:15;10.48;;;2.83;;
39188;SDS011;24915;50.858;4.376;2023-08-31T12:35:42;10.82;;;2.67;;
39188;SDS011;24915;50.858;4.376;2023-08-31T12:38:08;7.28;;;2.78;;
39188;SDS011;24915;50.858;4.376;2023-08-31T12:40:34;7.28;;;2.70;;
39188;SDS011;24915;50.858;4.376;2023-08-31T12:43:01;12.05;;;5.07;;
39188;SDS011;24915;50.858;4.376;2023-08-31T12:45:27;10.10;;;2.80;;
39188;SDS011;24915;50.858;4.376;2023-08-31T12:47:53;12.02;;;2.92;;
39188;SDS011;24915;50.858;4.376;2023-08-31T12:50:18;10.43;;;2.67;;
39188;SDS011;24915;50.858;4.376;2023-08-31T12:52:45;9.43;;;2.60;;
39188;SDS011;24915;50.858;4.376;2023-08-31T12:55:11;8.65;;;2.45;;
39188;SDS011;24915;50.858;4.376;2023-08-31T12:57:38;10.80;;;2.55;;
39188;SDS011;24915;50.858;4.376;2023-08-31T13:00:03;9.23;;;2.38;;
39188;SDS011;24915;50.858;4.376;2023-08-31T13:02:36;5.72;;;2.33;;
39188;SDS011;24915;50.858;4.376;2023-08-31T13:05:03;10.82;;;2.97;;
39188;SDS011;24915;50.858;4.376;2023-08-31T13:07:30;9.98;;;2.70;;
39188;SDS011;24915;50.858;4.376;2023-08-31T13:09:56;3.85;;;1.90;;
39188;SDS011;24915;50.858;4.376;2023-08-31T13:12:21;10.00;;;2.38;;
39188;SDS011;24915;50.858;4.376;2023-08-31T13:14:47;6.90;;;2.60;;
39188;SDS011;24915;50.858;4.376;2023-08-31T13:17:13;11.50;;;2.40;;
39188;SDS011;24915;50.858;4.376;2023-08-31T13:19:38;6.78;;;2.33;;
39188;SDS011;24915;50.858;4.376;2023-08-31T13:22:04;5.68;;;2.17;;
39188;SDS011;24915;50.858;4.376;2023-08-31T13:24:29;6.75;;;2.55;;
39188;SDS011;24915;50.858;4.376;2023-08-31T13:26:55;9.10;;;2.53;;
39188;SDS011;24915;50.858;4.376;2023-08-31T13:29:21;5.25;;;2.10;;
39188;SDS011;24915;50.858;4.376;2023-08-31T13:31:47;7.22;;;2.25;;
39188;SDS011;24915;50.858;4.376;2023-08-31T13:34:13;6.03;;;2.50;;
39188;SDS011;24915;50.858;4.376;2023-08-31T13:36:40;9.05;;;2.80;;
39188;SDS011;24915;50.858;4.376;2023-08-31T13:39:06;10.15;;;2.58;;
39188;SDS011;24915;50.858;4.376;2023-08-31T13:41:32;10.75;;;2.92;;
39188;SDS011;24915;50.858;4.376;2023-08-31T13:43:58;6.32;;;2.40;;
39188;SDS011;24915;50.858;4.376;2023-08-31T13:46:24;9.35;;;2.50;;
39188;SDS011;24915;50.858;4.376;2023-08-31T13:48:49;12.48;;;4.75;;
39188;SDS011;24915;50.858;4.376;2023-08-31T13:51:15;7.50;;;2.42;;
39188;SDS011;24915;50.858;4.376;2023-08-31T13:53:41;10.77;;;2.58;;
39188;SDS011;24915;50.858;4.376;2023-08-31T13:56:07;10.00;;;2.70;;
39188;SDS011;24915;50.858;4.376;2023-08-31T13:58:32;13.25;;;2.80;;
39188;SDS011;24915;50.858;4.376;2023-08-31T14:01:00;15.20;;;3.40;;
39188;SDS011;24915;50.858;4.376;2023-08-31T14:03:28;7.97;;;2.60;;
39188;SDS011;24915;50.858;4.376;2023-08-31T14:05:54;14.82;;;2.90;;
39188;SDS011;24915;50.858;4.376;2023-08-31T14:08:20;8.88;;;2.92;;
39188;SDS011;24915;50.858;4.376;2023-08-31T14:10:45;8.32;;;2.60;;
39188;SDS011;24915;50.858;4.376;2023-08-31T14:13:11;13.02;;;3.30;;
39188;SDS011;24915;50.858;4.376;2023-08-31T14:15:37;10.63;;;3.13;;
39188;SDS011;24915;50.858;4.376;2023-08-31T14:18:09;13.18;;;3.20;;
39188;SDS011;24915;50.858;4.376;2023-08-31T14:20:34;11.43;;;2.95;;
39188;SDS011;24915;50.858;4.376;2023-08-31T14:23:00;11.63;;;2.88;;
39188;SDS011;24915;50.858;4.376;2023-08-31T14:25:26;15.15;;;3.67;;
39188;SDS011;24915;50.858;4.376;2023-08-31T14:27:51;12.73;;;3.53;;
39188;SDS011;24915;50.858;4.376;2023-08-31T14:30:17;12.98;;;3.60;;
39188;SDS011;24915;50.858;4.376;2023-08-31T14:32:43;9.93;;;3.03;;
39188;SDS011;24915;50.858;4.376;2023-08-31T14:35:08;9.82;;;2.88;;
39188;SDS011;24915;50.858;4.376;2023-08-31T14:37:35;9.32;;;2.92;;
39188;SDS011;24915;50.858;4.376;2023-08-31T14:40:00;15.70;;;3.10;;
39188;SDS011;24915;50.858;4.376;2023-08-31T14:42:26;9.50;;;3.03;;
39188;SDS011;24915;50.858;4.376;2023-08-31T14:44:52;12.70;;;3.40;;
39188;SDS011;24915;50.858;4.376;2023-08-31T14:47:18;13.73;;;3.92;;
39188;SDS011;24915;50.858;4.376;2023-08-31T14:49:43;11.80;;;3.95;;
39188;SDS011;24915;50.858;4.376;2023-08-31T14:52:09;12.95;;;3.50;;
39188;SDS011;24915;50.858;4.376;2023-08-31T14:54:35;12.32;;;3.72;;
39188;SDS011;24915;50.858;4.376;2023-08-31T14:57:00;18.80;;;4.10;;
39188;SDS011;24915;50.858;4.376;2023-08-31T14:59:28;11.82;;;3.83;;
39188;SDS011;24915;50.858;4.376;2023-08-31T15:01:54;14.95;;;3.42;;